sensor_id;sensor_type;location;lat;lon;timestamp;temperature;humidity
1461;DHT22;724;49.910;12.530;2022-08-11T00:01:05;12.70;1.00
1461;DHT22;724;49.910;12.530;2022-08-11T00:03:34;12.70;1.00
1461;DHT22;724;49.910;12.530;2022-08-11T00:06:02;12.70;1.00
1461;DHT22;724;49.910;12.530;2022-08-11T00:08:31;12.70;1.00
1461;DHT22;724;49.910;12.530;2022-08-11T00:11:00;12.70;1.00
1461;DHT22;724;49.910;12.530;2022-08-11T00:13:31;12.70;1.00
1461;DHT22;724;49.910;12.530;2022-08-11T00:15:59;12.70;1.00
1461;DHT22;724;49.910;12.530;2022-08-11T00:18:28;12.70;1.00
1461;DHT22;724;49.910;12.530;2022-08-11T00:20:57;12.70;1.00
1461;DHT22;724;49.910;12.530;2022-08-11T00:23:25;12.60;1.00
1461;DHT22;724;49.910;12.530;2022-08-11T00:25:54;12.60;1.00
1461;DHT22;724;49.910;12.530;2022-08-11T00:28:24;12.50;1.00
1461;DHT22;724;49.910;12.530;2022-08-11T00:30:52;12.50;1.00
1461;DHT22;724;49.910;12.530;2022-08-11T00:33:20;12.50;1.00
1461;DHT22;724;49.910;12.530;2022-08-11T00:35:48;12.50;1.00
1461;DHT22;724;49.910;12.530;2022-08-11T00:38:16;12.50;1.00
1461;DHT22;724;49.910;12.530;2022-08-11T00:40:55;12.50;1.00
1461;DHT22;724;49.910;12.530;2022-08-11T00:43:39;12.30;1.00
1461;DHT22;724;49.910;12.530;2022-08-11T00:46:15;12.10;1.00
1461;DHT22;724;49.910;12.530;2022-08-11T00:48:52;12.20;1.00
1461;DHT22;724;49.910;12.530;2022-08-11T00:51:35;12.10;1.00
1461;DHT22;724;49.910;12.530;2022-08-11T00:54:18;12.00;1.00
1461;DHT22;724;49.910;12.530;2022-08-11T00:57:17;12.20;1.00
1461;DHT22;724;49.910;12.530;2022-08-11T01:00:03;12.10;1.00
1461;DHT22;724;49.910;12.530;2022-08-11T01:03:06;12.10;1.00
1461;DHT22;724;49.910;12.530;2022-08-11T01:06:01;12.10;1.00
1461;DHT22;724;49.910;12.530;2022-08-11T01:08:45;12.00;1.00
1461;DHT22;724;49.910;12.530;2022-08-11T01:11:45;11.80;1.00
1461;DHT22;724;49.910;12.530;2022-08-11T01:30:04;11.80;1.00
1461;DHT22;724;49.910;12.530;2022-08-11T01:36:25;11.70;1.00
1461;DHT22;724;49.910;12.530;2022-08-11T01:42:34;11.60;1.00
1461;DHT22;724;49.910;12.530;2022-08-11T01:45:31;11.60;1.00
1461;DHT22;724;49.910;12.530;2022-08-11T01:48:05;11.60;1.00
1461;DHT22;724;49.910;12.530;2022-08-11T01:50:45;11.60;1.00
1461;DHT22;724;49.910;12.530;2022-08-11T01:53:23;11.60;1.00
1461;DHT22;724;49.910;12.530;2022-08-11T01:56:00;11.70;1.00
1461;DHT22;724;49.910;12.530;2022-08-11T01:58:40;11.60;1.00
1461;DHT22;724;49.910;12.530;2022-08-11T02:01:21;11.50;1.00
1461;DHT22;724;49.910;12.530;2022-08-11T02:03:55;11.50;1.00
1461;DHT22;724;49.910;12.530;2022-08-11T02:06:30;11.60;1.00
1461;DHT22;724;49.910;12.530;2022-08-11T02:09:37;11.50;1.00
1461;DHT22;724;49.910;12.530;2022-08-11T02:12:14;11.50;1.00
1461;DHT22;724;49.910;12.530;2022-08-11T02:14:43;11.50;1.00
1461;DHT22;724;49.910;12.530;2022-08-11T02:17:18;11.40;1.00
1461;DHT22;724;49.910;12.530;2022-08-11T02:19:56;11.50;1.00
1461;DHT22;724;49.910;12.530;2022-08-11T02:22:50;11.30;1.00
1461;DHT22;724;49.910;12.530;2022-08-11T02:25:45;11.40;1.00
1461;DHT22;724;49.910;12.530;2022-08-11T02:28:21;11.40;1.90
1461;DHT22;724;49.910;12.530;2022-08-11T02:31:01;11.30;8.30
1461;DHT22;724;49.910;12.530;2022-08-11T02:33:48;11.30;13.40
1461;DHT22;724;49.910;12.530;2022-08-11T02:36:21;11.30;17.70
1461;DHT22;724;49.910;12.530;2022-08-11T02:38:57;11.20;25.90
1461;DHT22;724;49.910;12.530;2022-08-11T02:41:33;11.30;28.80
1461;DHT22;724;49.910;12.530;2022-08-11T02:44:28;11.20;36.30
1461;DHT22;724;49.910;12.530;2022-08-11T02:47:05;11.30;35.20
1461;DHT22;724;49.910;12.530;2022-08-11T02:49:41;11.20;36.60
1461;DHT22;724;49.910;12.530;2022-08-11T02:52:24;11.10;57.80
1461;DHT22;724;49.910;12.530;2022-08-11T02:55:02;11.00;39.50
1461;DHT22;724;49.910;12.530;2022-08-11T02:57:39;11.00;39.50
1461;DHT22;724;49.910;12.530;2022-08-11T03:00:09;11.00;51.10
1461;DHT22;724;49.910;12.530;2022-08-11T03:02:53;11.00;64.10
1461;DHT22;724;49.910;12.530;2022-08-11T03:05:49;11.00;72.70
1461;DHT22;724;49.910;12.530;2022-08-11T03:08:28;11.00;77.90
1461;DHT22;724;49.910;12.530;2022-08-11T03:11:04;11.00;85.60
1461;DHT22;724;49.910;12.530;2022-08-11T03:14:07;10.90;91.30
1461;DHT22;724;49.910;12.530;2022-08-11T03:16:57;10.90;98.30
1461;DHT22;724;49.910;12.530;2022-08-11T03:22:18;10.90;99.90
1461;DHT22;724;49.910;12.530;2022-08-11T03:24:57;10.90;99.90
1461;DHT22;724;49.910;12.530;2022-08-11T03:27:48;10.90;99.90
1461;DHT22;724;49.910;12.530;2022-08-11T03:30:22;10.90;99.90
1461;DHT22;724;49.910;12.530;2022-08-11T03:33:11;10.80;99.90
1461;DHT22;724;49.910;12.530;2022-08-11T03:36:09;10.80;99.90
1461;DHT22;724;49.910;12.530;2022-08-11T03:38:58;10.90;99.90
1461;DHT22;724;49.910;12.530;2022-08-11T03:41:33;10.80;99.90
1461;DHT22;724;49.910;12.530;2022-08-11T03:44:24;10.80;99.90
1461;DHT22;724;49.910;12.530;2022-08-11T03:47:17;10.70;99.90
1461;DHT22;724;49.910;12.530;2022-08-11T03:50:00;10.70;99.90
1461;DHT22;724;49.910;12.530;2022-08-11T03:52:41;10.70;99.90
1461;DHT22;724;49.910;12.530;2022-08-11T03:55:29;10.70;99.90
1461;DHT22;724;49.910;12.530;2022-08-11T03:58:29;10.70;99.90
1461;DHT22;724;49.910;12.530;2022-08-11T04:08:09;10.70;99.90
1461;DHT22;724;49.910;12.530;2022-08-11T04:17:48;10.40;99.90
1461;DHT22;724;49.910;12.530;2022-08-11T04:20:40;10.40;99.90
1461;DHT22;724;49.910;12.530;2022-08-11T04:23:24;10.30;98.30
1461;DHT22;724;49.910;12.530;2022-08-11T04:26:36;10.30;99.90
1461;DHT22;724;49.910;12.530;2022-08-11T04:29:19;10.40;99.90
1461;DHT22;724;49.910;12.530;2022-08-11T04:32:00;10.50;99.90
1461;DHT22;724;49.910;12.530;2022-08-11T04:34:44;10.50;99.90
1461;DHT22;724;49.910;12.530;2022-08-11T04:37:34;10.60;99.90
1461;DHT22;724;49.910;12.530;2022-08-11T04:40:41;10.70;99.90
1461;DHT22;724;49.910;12.530;2022-08-11T04:46:21;10.80;99.90
1461;DHT22;724;49.910;12.530;2022-08-11T04:49:19;10.90;99.90
1461;DHT22;724;49.910;12.530;2022-08-11T04:52:19;11.00;99.90
1461;DHT22;724;49.910;12.530;2022-08-11T04:55:27;11.00;99.90
1461;DHT22;724;49.910;12.530;2022-08-11T04:58:21;10.90;99.90
1461;DHT22;724;49.910;12.530;2022-08-11T05:01:19;11.00;99.90
1461;DHT22;724;49.910;12.530;2022-08-11T05:04:30;11.20;99.90
1461;DHT22;724;49.910;12.530;2022-08-11T05:10:50;11.80;99.90
1461;DHT22;724;49.910;12.530;2022-08-11T05:13:27;12.00;99.90
1461;DHT22;724;49.910;12.530;2022-08-11T05:16:16;12.40;99.90
1461;DHT22;724;49.910;12.530;2022-08-11T05:19:01;12.80;99.90
1461;DHT22;724;49.910;12.530;2022-08-11T05:21:51;13.10;70.60
1461;DHT22;724;49.910;12.530;2022-08-11T05:24:41;13.40;43.50
1461;DHT22;724;49.910;12.530;2022-08-11T05:27:31;13.80;14.20
1461;DHT22;724;49.910;12.530;2022-08-11T05:30:17;14.00;1.00
1461;DHT22;724;49.910;12.530;2022-08-11T05:33:05;14.40;1.00
1461;DHT22;724;49.910;12.530;2022-08-11T05:35:59;14.80;1.00
1461;DHT22;724;49.910;12.530;2022-08-11T05:38:27;15.10;1.00
1461;DHT22;724;49.910;12.530;2022-08-11T05:41:13;15.40;1.00
1461;DHT22;724;49.910;12.530;2022-08-11T05:44:02;15.70;1.00
1461;DHT22;724;49.910;12.530;2022-08-11T05:46:47;15.90;1.00
1461;DHT22;724;49.910;12.530;2022-08-11T05:49:33;16.20;1.00
1461;DHT22;724;49.910;12.530;2022-08-11T05:52:21;16.50;1.00
1461;DHT22;724;49.910;12.530;2022-08-11T05:55:07;16.80;1.00
1461;DHT22;724;49.910;12.530;2022-08-11T05:57:55;17.00;1.00
1461;DHT22;724;49.910;12.530;2022-08-11T06:00:24;17.40;1.00
1461;DHT22;724;49.910;12.530;2022-08-11T06:02:53;17.70;1.00
1461;DHT22;724;49.910;12.530;2022-08-11T06:05:20;17.90;1.00
1461;DHT22;724;49.910;12.530;2022-08-11T06:07:48;18.30;1.00
1461;DHT22;724;49.910;12.530;2022-08-11T06:10:24;18.50;1.00
1461;DHT22;724;49.910;12.530;2022-08-11T06:12:54;18.60;1.00
1461;DHT22;724;49.910;12.530;2022-08-11T06:15:22;19.50;1.00
1461;DHT22;724;49.910;12.530;2022-08-11T06:17:50;20.30;1.00
1461;DHT22;724;49.910;12.530;2022-08-11T06:20:19;20.60;1.00
1461;DHT22;724;49.910;12.530;2022-08-11T06:22:49;20.50;1.00
1461;DHT22;724;49.910;12.530;2022-08-11T06:25:29;20.30;1.00
1461;DHT22;724;49.910;12.530;2022-08-11T06:27:56;20.00;1.00
1461;DHT22;724;49.910;12.530;2022-08-11T06:30:34;20.40;1.00
1461;DHT22;724;49.910;12.530;2022-08-11T06:33:07;20.70;1.00
1461;DHT22;724;49.910;12.530;2022-08-11T06:35:46;21.20;1.00
1461;DHT22;724;49.910;12.530;2022-08-11T06:38:27;21.80;1.00
1461;DHT22;724;49.910;12.530;2022-08-11T06:41:06;21.90;1.00
1461;DHT22;724;49.910;12.530;2022-08-11T06:44:01;22.70;1.00
1461;DHT22;724;49.910;12.530;2022-08-11T06:46:35;22.80;1.00
1461;DHT22;724;49.910;12.530;2022-08-11T06:49:04;23.10;1.00
1461;DHT22;724;49.910;12.530;2022-08-11T06:51:34;23.70;1.00
1461;DHT22;724;49.910;12.530;2022-08-11T06:54:03;24.50;1.00
1461;DHT22;724;49.910;12.530;2022-08-11T06:56:33;25.10;1.00
1461;DHT22;724;49.910;12.530;2022-08-11T06:59:19;23.70;1.00
1461;DHT22;724;49.910;12.530;2022-08-11T07:02:08;24.40;1.00
1461;DHT22;724;49.910;12.530;2022-08-11T07:04:41;24.50;1.00
1461;DHT22;724;49.910;12.530;2022-08-11T07:07:39;25.90;1.00
1461;DHT22;724;49.910;12.530;2022-08-11T07:10:43;27.00;1.00
1461;DHT22;724;49.910;12.530;2022-08-11T07:13:27;24.70;1.00
1461;DHT22;724;49.910;12.530;2022-08-11T07:16:17;25.10;1.00
1461;DHT22;724;49.910;12.530;2022-08-11T07:18:48;24.60;1.00
1461;DHT22;724;49.910;12.530;2022-08-11T07:21:35;24.00;1.00
1461;DHT22;724;49.910;12.530;2022-08-11T07:24:25;25.00;1.00
1461;DHT22;724;49.910;12.530;2022-08-11T07:27:13;26.40;1.00
1461;DHT22;724;49.910;12.530;2022-08-11T07:30:00;26.10;1.00
1461;DHT22;724;49.910;12.530;2022-08-11T07:32:30;25.00;1.00
1461;DHT22;724;49.910;12.530;2022-08-11T07:35:05;25.80;1.00
1461;DHT22;724;49.910;12.530;2022-08-11T07:37:33;26.50;1.00
1461;DHT22;724;49.910;12.530;2022-08-11T07:40:01;26.10;1.00
1461;DHT22;724;49.910;12.530;2022-08-11T07:42:31;25.70;1.00
1461;DHT22;724;49.910;12.530;2022-08-11T07:45:03;24.80;1.00
1461;DHT22;724;49.910;12.530;2022-08-11T07:47:48;25.20;1.00
1461;DHT22;724;49.910;12.530;2022-08-11T07:50:35;25.50;1.00
1461;DHT22;724;49.910;12.530;2022-08-11T07:53:23;25.50;1.00
1461;DHT22;724;49.910;12.530;2022-08-11T07:55:52;25.10;1.00
1461;DHT22;724;49.910;12.530;2022-08-11T07:58:20;25.90;1.00
1461;DHT22;724;49.910;12.530;2022-08-11T08:01:06;24.00;1.00
1461;DHT22;724;49.910;12.530;2022-08-11T08:03:50;24.70;1.00
1461;DHT22;724;49.910;12.530;2022-08-11T08:06:37;24.10;1.00
1461;DHT22;724;49.910;12.530;2022-08-11T08:09:22;24.30;1.00
1461;DHT22;724;49.910;12.530;2022-08-11T08:12:08;25.00;1.00
1461;DHT22;724;49.910;12.530;2022-08-11T08:14:54;25.10;1.00
1461;DHT22;724;49.910;12.530;2022-08-11T08:17:41;25.90;1.00
1461;DHT22;724;49.910;12.530;2022-08-11T08:20:19;26.60;1.00
1461;DHT22;724;49.910;12.530;2022-08-11T08:22:50;26.10;1.00
1461;DHT22;724;49.910;12.530;2022-08-11T08:25:23;26.20;1.00
1461;DHT22;724;49.910;12.530;2022-08-11T08:27:51;26.00;1.00
1461;DHT22;724;49.910;12.530;2022-08-11T08:30:19;25.90;1.00
1461;DHT22;724;49.910;12.530;2022-08-11T08:33:04;25.00;1.00
1461;DHT22;724;49.910;12.530;2022-08-11T08:35:31;24.40;1.00
1461;DHT22;724;49.910;12.530;2022-08-11T08:38:00;24.10;1.00
1461;DHT22;724;49.910;12.530;2022-08-11T08:40:27;24.70;1.00
1461;DHT22;724;49.910;12.530;2022-08-11T08:42:57;24.50;1.00
1461;DHT22;724;49.910;12.530;2022-08-11T08:45:25;24.80;1.00
1461;DHT22;724;49.910;12.530;2022-08-11T08:47:58;24.90;1.00
1461;DHT22;724;49.910;12.530;2022-08-11T08:50:29;24.40;1.00
1461;DHT22;724;49.910;12.530;2022-08-11T08:53:13;24.30;1.00
1461;DHT22;724;49.910;12.530;2022-08-11T08:55:45;24.80;1.00
1461;DHT22;724;49.910;12.530;2022-08-11T08:58:12;24.40;1.00
1461;DHT22;724;49.910;12.530;2022-08-11T09:00:44;25.00;1.00
1461;DHT22;724;49.910;12.530;2022-08-11T09:03:11;24.70;1.00
1461;DHT22;724;49.910;12.530;2022-08-11T09:05:39;25.10;1.00
1461;DHT22;724;49.910;12.530;2022-08-11T09:08:07;25.10;1.00
1461;DHT22;724;49.910;12.530;2022-08-11T09:10:37;26.50;1.00
1461;DHT22;724;49.910;12.530;2022-08-11T09:13:05;26.10;1.00
1461;DHT22;724;49.910;12.530;2022-08-11T09:15:33;26.40;1.00
1461;DHT22;724;49.910;12.530;2022-08-11T09:18:03;25.90;1.00
1461;DHT22;724;49.910;12.530;2022-08-11T09:20:35;26.20;1.00
1461;DHT22;724;49.910;12.530;2022-08-11T09:23:05;26.00;1.00
1461;DHT22;724;49.910;12.530;2022-08-11T09:25:54;26.20;1.00
1461;DHT22;724;49.910;12.530;2022-08-11T09:28:41;24.80;1.00
1461;DHT22;724;49.910;12.530;2022-08-11T09:31:09;25.00;1.00
1461;DHT22;724;49.910;12.530;2022-08-11T09:33:37;25.50;1.00
1461;DHT22;724;49.910;12.530;2022-08-11T09:36:06;25.80;1.00
1461;DHT22;724;49.910;12.530;2022-08-11T09:38:48;24.80;1.00
1461;DHT22;724;49.910;12.530;2022-08-11T09:41:36;25.30;1.00
1461;DHT22;724;49.910;12.530;2022-08-11T09:44:06;25.80;1.00
1461;DHT22;724;49.910;12.530;2022-08-11T09:46:52;25.70;1.00
1461;DHT22;724;49.910;12.530;2022-08-11T09:49:20;26.10;1.00
1461;DHT22;724;49.910;12.530;2022-08-11T09:51:48;27.90;1.00
1461;DHT22;724;49.910;12.530;2022-08-11T09:54:15;27.70;1.00
1461;DHT22;724;49.910;12.530;2022-08-11T09:56:45;27.10;1.00
1461;DHT22;724;49.910;12.530;2022-08-11T09:59:29;26.90;1.00
1461;DHT22;724;49.910;12.530;2022-08-11T10:01:59;26.80;1.00
1461;DHT22;724;49.910;12.530;2022-08-11T10:04:30;27.10;1.00
1461;DHT22;724;49.910;12.530;2022-08-11T10:07:02;27.40;1.00
1461;DHT22;724;49.910;12.530;2022-08-11T10:09:36;27.80;1.00
1461;DHT22;724;49.910;12.530;2022-08-11T10:12:08;29.70;1.00
1461;DHT22;724;49.910;12.530;2022-08-11T10:14:41;26.50;1.00
1461;DHT22;724;49.910;12.530;2022-08-11T10:17:29;27.30;1.00
1461;DHT22;724;49.910;12.530;2022-08-11T10:19:58;29.30;1.00
1461;DHT22;724;49.910;12.530;2022-08-11T10:22:27;28.20;1.00
1461;DHT22;724;49.910;12.530;2022-08-11T10:25:12;28.50;1.00
1461;DHT22;724;49.910;12.530;2022-08-11T10:27:59;28.30;1.00
1461;DHT22;724;49.910;12.530;2022-08-11T10:30:28;28.50;1.00
1461;DHT22;724;49.910;12.530;2022-08-11T10:33:16;27.70;1.00
1461;DHT22;724;49.910;12.530;2022-08-11T10:36:02;27.00;1.00
1461;DHT22;724;49.910;12.530;2022-08-11T10:38:30;27.80;1.00
1461;DHT22;724;49.910;12.530;2022-08-11T10:40:57;25.80;1.00
1461;DHT22;724;49.910;12.530;2022-08-11T10:43:44;26.60;1.00
1461;DHT22;724;49.910;12.530;2022-08-11T10:46:11;28.00;1.00
1461;DHT22;724;49.910;12.530;2022-08-11T10:48:57;29.30;1.00
1461;DHT22;724;49.910;12.530;2022-08-11T10:51:25;29.20;1.00
1461;DHT22;724;49.910;12.530;2022-08-11T10:54:10;27.70;1.00
1461;DHT22;724;49.910;12.530;2022-08-11T10:56:54;26.50;1.00
1461;DHT22;724;49.910;12.530;2022-08-11T10:59:40;27.90;1.00
1461;DHT22;724;49.910;12.530;2022-08-11T11:02:09;28.30;1.00
1461;DHT22;724;49.910;12.530;2022-08-11T11:04:58;27.80;1.00
1461;DHT22;724;49.910;12.530;2022-08-11T11:07:35;27.20;1.00
1461;DHT22;724;49.910;12.530;2022-08-11T11:10:04;26.90;1.00
1461;DHT22;724;49.910;12.530;2022-08-11T11:12:35;25.30;99.90
1461;DHT22;724;49.910;12.530;2022-08-11T11:15:25;25.60;99.90
1461;DHT22;724;49.910;12.530;2022-08-11T11:18:13;26.90;1.00
1461;DHT22;724;49.910;12.530;2022-08-11T11:20:42;26.80;99.90
1461;DHT22;724;49.910;12.530;2022-08-11T11:23:17;26.50;99.90
1461;DHT22;724;49.910;12.530;2022-08-11T11:26:11;25.20;99.90
1461;DHT22;724;49.910;12.530;2022-08-11T11:31:57;25.30;99.90
1461;DHT22;724;49.910;12.530;2022-08-11T11:35:03;25.30;99.90
1461;DHT22;724;49.910;12.530;2022-08-11T11:37:33;25.80;1.00
1461;DHT22;724;49.910;12.530;2022-08-11T11:40:05;24.90;99.90
1461;DHT22;724;49.910;12.530;2022-08-11T11:42:35;25.70;1.00
1461;DHT22;724;49.910;12.530;2022-08-11T11:45:03;26.40;1.00
1461;DHT22;724;49.910;12.530;2022-08-11T11:47:32;26.60;1.00
1461;DHT22;724;49.910;12.530;2022-08-11T11:50:00;26.60;1.00
1461;DHT22;724;49.910;12.530;2022-08-11T11:52:27;26.70;1.00
1461;DHT22;724;49.910;12.530;2022-08-11T11:54:55;25.60;99.90
1461;DHT22;724;49.910;12.530;2022-08-11T11:57:23;25.20;99.90
1461;DHT22;724;49.910;12.530;2022-08-11T12:00:09;25.80;99.90
1461;DHT22;724;49.910;12.530;2022-08-11T12:02:57;26.30;1.00
1461;DHT22;724;49.910;12.530;2022-08-11T12:05:25;26.30;99.90
1461;DHT22;724;49.910;12.530;2022-08-11T12:07:53;26.20;99.90
1461;DHT22;724;49.910;12.530;2022-08-11T12:10:43;26.30;99.90
1461;DHT22;724;49.910;12.530;2022-08-11T12:13:11;25.30;99.90
1461;DHT22;724;49.910;12.530;2022-08-11T12:15:56;25.50;99.90
1461;DHT22;724;49.910;12.530;2022-08-11T12:18:29;24.70;99.90
1461;DHT22;724;49.910;12.530;2022-08-11T12:20:56;24.70;99.90
1461;DHT22;724;49.910;12.530;2022-08-11T12:23:23;25.70;99.90
1461;DHT22;724;49.910;12.530;2022-08-11T12:26:08;26.50;1.00
1461;DHT22;724;49.910;12.530;2022-08-11T12:28:49;26.20;99.90
1461;DHT22;724;49.910;12.530;2022-08-11T12:31:16;26.00;99.90
1461;DHT22;724;49.910;12.530;2022-08-11T12:33:47;25.10;99.90
1461;DHT22;724;49.910;12.530;2022-08-11T12:36:14;25.40;99.90
1461;DHT22;724;49.910;12.530;2022-08-11T12:38:44;24.70;99.90
1461;DHT22;724;49.910;12.530;2022-08-11T12:41:13;25.40;99.90
1461;DHT22;724;49.910;12.530;2022-08-11T12:43:59;25.30;99.90
1461;DHT22;724;49.910;12.530;2022-08-11T12:46:45;26.00;99.90
1461;DHT22;724;49.910;12.530;2022-08-11T12:49:14;26.00;99.90
1461;DHT22;724;49.910;12.530;2022-08-11T12:52:04;25.40;99.90
1461;DHT22;724;49.910;12.530;2022-08-11T12:54:37;25.80;99.90
1461;DHT22;724;49.910;12.530;2022-08-11T12:57:12;26.20;99.90
1461;DHT22;724;49.910;12.530;2022-08-11T12:59:58;25.90;99.90
1461;DHT22;724;49.910;12.530;2022-08-11T13:02:45;25.80;99.90
1461;DHT22;724;49.910;12.530;2022-08-11T13:05:32;25.80;99.90
1461;DHT22;724;49.910;12.530;2022-08-11T13:08:00;25.90;99.90
1461;DHT22;724;49.910;12.530;2022-08-11T13:10:27;25.90;99.90
1461;DHT22;724;49.910;12.530;2022-08-11T13:13:16;26.90;99.90
1461;DHT22;724;49.910;12.530;2022-08-11T13:15:49;27.00;99.90
1461;DHT22;724;49.910;12.530;2022-08-11T13:18:18;27.10;99.90
1461;DHT22;724;49.910;12.530;2022-08-11T13:20:51;26.40;99.90
1461;DHT22;724;49.910;12.530;2022-08-11T13:23:19;26.20;99.90
1461;DHT22;724;49.910;12.530;2022-08-11T13:25:47;26.20;99.90
1461;DHT22;724;49.910;12.530;2022-08-11T13:28:15;26.70;99.90
1461;DHT22;724;49.910;12.530;2022-08-11T13:30:46;27.00;99.90
1461;DHT22;724;49.910;12.530;2022-08-11T13:33:32;26.60;99.90
1461;DHT22;724;49.910;12.530;2022-08-11T13:36:01;26.20;99.90
1461;DHT22;724;49.910;12.530;2022-08-11T13:38:28;25.80;99.90
1461;DHT22;724;49.910;12.530;2022-08-11T13:40:58;26.00;99.90
1461;DHT22;724;49.910;12.530;2022-08-11T13:43:25;26.00;99.90
1461;DHT22;724;49.910;12.530;2022-08-11T13:45:53;25.90;99.90
1461;DHT22;724;49.910;12.530;2022-08-11T13:48:41;25.10;99.90
1461;DHT22;724;49.910;12.530;2022-08-11T13:51:11;25.90;99.90
1461;DHT22;724;49.910;12.530;2022-08-11T13:53:59;25.40;99.90
1461;DHT22;724;49.910;12.530;2022-08-11T13:56:26;26.00;99.90
1461;DHT22;724;49.910;12.530;2022-08-11T13:58:54;25.50;99.90
1461;DHT22;724;49.910;12.530;2022-08-11T14:01:24;25.30;99.90
1461;DHT22;724;49.910;12.530;2022-08-11T14:03:52;25.20;99.90
1461;DHT22;724;49.910;12.530;2022-08-11T14:06:21;24.90;99.90
1461;DHT22;724;49.910;12.530;2022-08-11T14:08:49;25.40;99.90
1461;DHT22;724;49.910;12.530;2022-08-11T14:11:18;24.80;99.90
1461;DHT22;724;49.910;12.530;2022-08-11T14:14:04;25.10;99.90
1461;DHT22;724;49.910;12.530;2022-08-11T14:16:35;25.40;99.90
1461;DHT22;724;49.910;12.530;2022-08-11T14:19:08;25.00;99.90
1461;DHT22;724;49.910;12.530;2022-08-11T14:21:42;24.80;99.90
1461;DHT22;724;49.910;12.530;2022-08-11T14:24:27;24.90;99.90
1461;DHT22;724;49.910;12.530;2022-08-11T14:26:55;24.80;99.90
1461;DHT22;724;49.910;12.530;2022-08-11T14:29:25;25.20;99.90
1461;DHT22;724;49.910;12.530;2022-08-11T14:31:57;24.80;99.90
1461;DHT22;724;49.910;12.530;2022-08-11T14:34:27;24.90;99.90
1461;DHT22;724;49.910;12.530;2022-08-11T14:36:57;24.80;99.90
1461;DHT22;724;49.910;12.530;2022-08-11T14:39:26;24.60;99.90
1461;DHT22;724;49.910;12.530;2022-08-11T14:41:54;24.80;99.90
1461;DHT22;724;49.910;12.530;2022-08-11T14:44:41;24.90;99.90
1461;DHT22;724;49.910;12.530;2022-08-11T14:47:42;24.70;99.90
1461;DHT22;724;49.910;12.530;2022-08-11T14:50:13;24.50;99.90
1461;DHT22;724;49.910;12.530;2022-08-11T14:52:49;24.20;99.90
1461;DHT22;724;49.910;12.530;2022-08-11T14:55:16;24.10;99.90
1461;DHT22;724;49.910;12.530;2022-08-11T14:58:01;24.50;99.90
1461;DHT22;724;49.910;12.530;2022-08-11T15:00:29;24.40;99.90
1461;DHT22;724;49.910;12.530;2022-08-11T15:02:57;24.30;99.90
1461;DHT22;724;49.910;12.530;2022-08-11T15:05:38;24.10;99.90
1461;DHT22;724;49.910;12.530;2022-08-11T15:08:08;24.10;99.90
1461;DHT22;724;49.910;12.530;2022-08-11T15:10:35;24.20;99.90
1461;DHT22;724;49.910;12.530;2022-08-11T15:13:03;24.40;99.90
1461;DHT22;724;49.910;12.530;2022-08-11T15:15:30;24.70;99.90
1461;DHT22;724;49.910;12.530;2022-08-11T15:18:18;25.30;99.90
1461;DHT22;724;49.910;12.530;2022-08-11T15:20:46;25.00;99.90
1461;DHT22;724;49.910;12.530;2022-08-11T15:23:31;25.10;99.90
1461;DHT22;724;49.910;12.530;2022-08-11T15:26:18;24.70;99.90
1461;DHT22;724;49.910;12.530;2022-08-11T15:29:08;24.50;99.90
1461;DHT22;724;49.910;12.530;2022-08-11T15:31:54;24.80;99.90
1461;DHT22;724;49.910;12.530;2022-08-11T15:34:40;25.30;99.90
1461;DHT22;724;49.910;12.530;2022-08-11T15:37:27;25.20;99.90
1461;DHT22;724;49.910;12.530;2022-08-11T15:40:03;25.10;99.90
1461;DHT22;724;49.910;12.530;2022-08-11T15:42:54;25.20;99.90
1461;DHT22;724;49.910;12.530;2022-08-11T15:45:40;25.50;99.90
1461;DHT22;724;49.910;12.530;2022-08-11T15:48:18;25.60;99.90
1461;DHT22;724;49.910;12.530;2022-08-11T15:50:51;25.50;99.90
1461;DHT22;724;49.910;12.530;2022-08-11T15:53:24;25.50;99.90
1461;DHT22;724;49.910;12.530;2022-08-11T15:55:54;24.90;99.90
1461;DHT22;724;49.910;12.530;2022-08-11T15:58:22;24.60;99.90
1461;DHT22;724;49.910;12.530;2022-08-11T16:01:09;24.70;99.90
1461;DHT22;724;49.910;12.530;2022-08-11T16:03:58;24.50;99.90
1461;DHT22;724;49.910;12.530;2022-08-11T16:06:50;24.80;99.90
1461;DHT22;724;49.910;12.530;2022-08-11T16:09:22;25.10;99.90
1461;DHT22;724;49.910;12.530;2022-08-11T16:11:52;24.50;99.90
1461;DHT22;724;49.910;12.530;2022-08-11T16:14:21;24.10;99.90
1461;DHT22;724;49.910;12.530;2022-08-11T16:17:09;24.40;99.90
1461;DHT22;724;49.910;12.530;2022-08-11T16:19:39;25.10;99.90
1461;DHT22;724;49.910;12.530;2022-08-11T16:22:10;24.80;99.90
1461;DHT22;724;49.910;12.530;2022-08-11T16:24:40;24.70;99.90
1461;DHT22;724;49.910;12.530;2022-08-11T16:27:12;24.80;99.90
1461;DHT22;724;49.910;12.530;2022-08-11T16:29:44;24.30;99.90
1461;DHT22;724;49.910;12.530;2022-08-11T16:32:14;24.60;99.90
1461;DHT22;724;49.910;12.530;2022-08-11T16:34:43;24.50;99.90
1461;DHT22;724;49.910;12.530;2022-08-11T16:37:30;24.30;99.90
1461;DHT22;724;49.910;12.530;2022-08-11T16:40:17;24.20;99.90
1461;DHT22;724;49.910;12.530;2022-08-11T16:42:47;24.20;99.90
1461;DHT22;724;49.910;12.530;2022-08-11T16:45:33;24.20;99.90
1461;DHT22;724;49.910;12.530;2022-08-11T16:48:18;24.30;99.90
1461;DHT22;724;49.910;12.530;2022-08-11T16:50:45;24.50;99.90
1461;DHT22;724;49.910;12.530;2022-08-11T16:53:12;24.10;99.90
1461;DHT22;724;49.910;12.530;2022-08-11T16:55:40;24.40;99.90
1461;DHT22;724;49.910;12.530;2022-08-11T16:58:08;24.60;99.90
1461;DHT22;724;49.910;12.530;2022-08-11T17:00:54;24.10;99.90
1461;DHT22;724;49.910;12.530;2022-08-11T17:03:23;24.10;99.90
1461;DHT22;724;49.910;12.530;2022-08-11T17:06:10;24.00;99.90
1461;DHT22;724;49.910;12.530;2022-08-11T17:08:56;23.80;99.90
1461;DHT22;724;49.910;12.530;2022-08-11T17:11:44;23.70;99.90
1461;DHT22;724;49.910;12.530;2022-08-11T17:14:36;23.70;99.90
1461;DHT22;724;49.910;12.530;2022-08-11T17:17:07;23.50;99.90
1461;DHT22;724;49.910;12.530;2022-08-11T17:19:36;23.40;99.90
1461;DHT22;724;49.910;12.530;2022-08-11T17:22:05;23.40;99.90
1461;DHT22;724;49.910;12.530;2022-08-11T17:24:51;23.50;99.90
1461;DHT22;724;49.910;12.530;2022-08-11T17:27:19;23.40;99.90
1461;DHT22;724;49.910;12.530;2022-08-11T17:29:51;23.30;99.90
1461;DHT22;724;49.910;12.530;2022-08-11T17:32:22;23.20;99.90
1461;DHT22;724;49.910;12.530;2022-08-11T17:35:10;23.00;99.90
1461;DHT22;724;49.910;12.530;2022-08-11T17:37:57;22.80;99.90
1461;DHT22;724;49.910;12.530;2022-08-11T17:40:25;22.70;99.90
1461;DHT22;724;49.910;12.530;2022-08-11T17:42:53;22.60;99.90
1461;DHT22;724;49.910;12.530;2022-08-11T17:45:41;22.40;99.90
1461;DHT22;724;49.910;12.530;2022-08-11T17:48:27;22.30;99.90
1461;DHT22;724;49.910;12.530;2022-08-11T17:50:56;22.20;99.90
1461;DHT22;724;49.910;12.530;2022-08-11T17:53:24;22.10;99.90
1461;DHT22;724;49.910;12.530;2022-08-11T17:56:09;21.90;99.90
1461;DHT22;724;49.910;12.530;2022-08-11T17:58:55;21.80;99.90
1461;DHT22;724;49.910;12.530;2022-08-11T18:01:43;21.60;99.90
1461;DHT22;724;49.910;12.530;2022-08-11T18:04:12;21.60;99.90
1461;DHT22;724;49.910;12.530;2022-08-11T18:06:40;21.40;99.90
1461;DHT22;724;49.910;12.530;2022-08-11T18:09:11;21.40;99.90